ADDS METAR Data INFO
IDs: Format: Raw Decoded Include TAF

Data at: 0855 UTC 19 Jun 2018

KI69 190837Z AUTO 24005KT 10SM CLR 25/23 A3001 RMK AO2 T02460231
KI69 190816Z AUTO 24004KT 10SM CLR 25/23 A3001 RMK AO2 T02470230
KI69 190815Z AUTO 24004KT 10SM CLR 25/23 A3001 RMK AO2 T02480230
KI69 190756Z AUTO 24004KT 10SM CLR 25/22 A3001 RMK AO2 T02470220
KI69 190755Z AUTO 24004KT 10SM CLR 25/22 A3001 RMK AO2 T02470220
KI69 190737Z AUTO 24004KT 10SM CLR 25/22 A3001 RMK AO2 T02490218
KI69 190716Z AUTO 23005KT 10SM CLR 25/22 A3002 RMK AO2 T02510217
KI69 190715Z AUTO 23005KT 10SM CLR 25/22 A3002 RMK AO2 T02510217
KI69 190656Z AUTO 23006KT 10SM CLR 25/22 A3002 RMK AO2 T02540217
KI69 190655Z AUTO 23006KT 10SM CLR 25/22 A3002 RMK AO2 T02540217
KI69 190637Z AUTO 23005KT 10SM CLR 25/22 A3002 RMK AO2 T02540217
KI69 190616Z AUTO 24004KT 10SM CLR 26/22 A3002 RMK AO2 T02550217
KI69 190615Z AUTO 24005KT 10SM CLR 26/22 A3002 RMK AO2 T02550217
KI69 190556Z AUTO 23005KT 10SM CLR 26/22 A3003 RMK AO2 T02580217 10317 20257 403450220
KI69 190555Z AUTO 23005KT 10SM CLR 26/22 A3003 RMK AO2 T02580217 10317 20257 403450220
KI69 190537Z AUTO 24005KT 10SM CLR 26/22 A3003 RMK AO2 T02600218
KI69 190516Z AUTO 24005KT 10SM CLR 26/22 A3003 RMK AO2 T02600217
KI69 190515Z AUTO 24005KT 10SM CLR 26/22 A3003 RMK AO2 T02600217
KI69 190456Z AUTO 24005KT 10SM CLR 26/22 A3003 RMK AO2 T02620217
KI69 190455Z AUTO 24005KT 10SM CLR 26/22 A3003 RMK AO2 T02620217
KI69 190437Z AUTO 25005KT 10SM CLR 26/22 A3003 RMK AO2 T02630216
KI69 190416Z AUTO 24004KT 10SM CLR 27/22 A3003 RMK AO2 T02650215
KI69 190415Z AUTO 24004KT 10SM CLR 27/22 A3004 RMK AO2 T02650215
KI69 190356Z AUTO 24004KT 10SM CLR 27/21 A3003 RMK AO2 T02660212
KI69 190355Z AUTO 24004KT 10SM CLR 27/21 A3003 RMK AO2 T02660212
KI69 190336Z AUTO 24003KT 10SM CLR 27/21 A3003 RMK AO2 T02700211
KI69 190317Z AUTO 24005KT 10SM CLR 28/21 A3003 RMK AO2 T02750210
KI69 190256Z AUTO 24005KT 10SM CLR 28/21 A3003 RMK AO2 T02760209
KI69 190255Z AUTO 24005KT 10SM CLR 28/21 A3003 RMK AO2 T02760209
KI69 190237Z AUTO 23004KT 10SM CLR 28/21 A3003 RMK AO2 T02800207
KI69 190217Z AUTO 23004KT 10SM CLR 29/21 A3002 RMK AO2 T02850206
KI69 190156Z AUTO 25004KT 10SM CLR 29/21 A3002 RMK AO2 T02890206
KI69 190155Z AUTO 25004KT 10SM CLR 29/21 A3002 RMK AO2 T02900206
KI69 190137Z AUTO 26004KT 10SM CLR 29/21 A3001 RMK AO2 T02900208
KI69 190117Z AUTO 24004KT 10SM CLR 30/21 A3001 RMK AO2 T02950205
KI69 190056Z AUTO 23005KT 10SM CLR 30/21 A3001 RMK AO2 T03020206
KI69 190055Z AUTO 23005KT 10SM CLR 30/21 A3001 RMK AO2 T03020206
KI69 190037Z AUTO 24005KT 10SM CLR 31/21 A3000 RMK AO2 T03080205
KI69 190017Z AUTO 24007KT 10SM CLR 31/21 A3000 RMK AO2 T03120205
KI69 182356Z AUTO 25007KT 10SM CLR 32/20 A2999 RMK AO2 T03170201 10345 20317
KI69 182355Z AUTO 25008KT 10SM CLR 32/20 A2999 RMK AO2 T03180200 10345 20318
KI69 182337Z AUTO 24009KT 10SM CLR 32/20 A2999 RMK AO2 T03230196
KI69 182317Z AUTO 25010KT 10SM CLR 33/19 A2999 RMK AO2 T03250192
KI69 182256Z AUTO 23008KT 10SM CLR 33/19 A2999 RMK AO2 T03320192
KI69 182255Z AUTO 23009KT 10SM CLR 33/19 A2999 RMK AO2 T03330192
KI69 182237Z AUTO 25008KT 10SM CLR 34/19 A3000 RMK AO2 T03350190
KI69 182217Z AUTO 25012G17KT 10SM CLR 34/18 A3001 RMK AO2 T03360184
KI69 182156Z AUTO 24010KT 10SM CLR 34/18 A3001 RMK AO2 T03380179
KI69 182155Z AUTO 24010KT 10SM CLR 34/18 A3001 RMK AO2 T03380177
KI69 182137Z AUTO 24011KT 10SM CLR 34/18 A3002 RMK AO2 T03400180
KI69 182117Z AUTO 24010KT 10SM CLR 34/18 A3002 RMK AO2 T03420176
KI69 182115Z AUTO 24010G15KT 10SM CLR 34/18 A3002 RMK AO2 T03420179
KI69 182056Z AUTO 24008G14KT 10SM CLR 34/18 A3003 RMK AO2 T03430182
KI69 182055Z AUTO 24007G14KT 10SM CLR 34/18 A3003 RMK AO2 T03430182
KI69 182037Z AUTO 24010KT 10SM CLR 34/18 A3004 RMK AO2 T03430183
KI69 182016Z AUTO 23011KT 10SM CLR 35/18 A3004 RMK AO2 T03450184
KI69 182015Z AUTO 23011KT 10SM CLR 35/19 A3005 RMK AO2 T03450185
KI69 181957Z AUTO 26011G15KT 10SM CLR 34/19 A3005 RMK AO2 T03410185
KI69 181936Z AUTO 25009G14KT 10SM SCT065 34/19 A3006 RMK AO2 T03410188
KI69 181935Z AUTO 26007G14KT 10SM SCT065 34/19 A3006 RMK AO2 T03410188
KI69 181916Z AUTO 25009KT 10SM SCT065 34/19 A3006 RMK AO2 T03440187
KI69 181915Z AUTO 25009KT 10SM SCT065 34/19 A3006 RMK AO2 T03430186
KI69 181857Z AUTO 24005G09KT 10SM SCT050 34/19 A3007 RMK AO2 T03390190
KI69 181836Z AUTO 23010KT 10SM SCT050 34/19 A3008 RMK AO2 T03370188
KI69 181835Z AUTO 22010KT 10SM SCT050 34/19 A3008 RMK AO2 T03380188
KI69 181816Z AUTO 26007KT 10SM SCT050 SCT065 34/19 A3009 RMK AO2 T03360191
KI69 181815Z AUTO 26008KT 10SM SCT050 SCT065 34/19 A3009 RMK AO2 T03360190
KI69 181757Z AUTO 22009KT 10SM SCT050 SCT065 34/19 A3009 RMK AO2 T03360192
KI69 181736Z AUTO 27009KT 220V290 10SM SCT050 34/19 A3010 RMK AO2 T03360191
KI69 181735Z AUTO 24010KT 220V280 10SM SCT050 34/19 A3010 RMK AO2 T03370189
KI69 181716Z AUTO 24007KT 210V280 10SM SCT050 33/19 A3011 RMK AO2 T03280193
KI69 181715Z AUTO 25004KT 10SM SCT050 33/19 A3011 RMK AO2 T03280193
KI69 181657Z AUTO 24005G11KT 10SM SCT050 33/18 A3011 RMK AO2 T03330182
KI69 181636Z AUTO 24008G17KT 10SM SCT046 33/19 A3012 RMK AO2 T03290192
KI69 181635Z AUTO 24008G17KT 10SM SCT046 33/19 A3012 RMK AO2 T03290190
KI69 181616Z AUTO 27008G14KT 10SM SCT044 33/20 A3012 RMK AO2 T03280201
KI69 181615Z AUTO 27008G14KT 10SM SCT044 33/20 A3012 RMK AO2 T03280201
KI69 181556Z AUTO 24010G14KT 10SM SCT042 32/20 A3012 RMK AO2 T03230203
KI69 181555Z AUTO 24011G14KT 10SM SCT042 32/20 A3012 RMK AO2 T03220204
KI69 181536Z AUTO 25011KT 10SM CLR 32/20 A3012 RMK AO2 T03200204
KI69 181516Z AUTO 25008KT 10SM CLR 31/21 A3012 RMK AO2 T03140210
KI69 181515Z AUTO 26008KT 10SM CLR 31/21 A3012 RMK AO2 T03140208
KI69 181456Z AUTO 27009KT 10SM CLR 31/21 A3012 RMK AO2 T03100212
KI69 181455Z AUTO 27008KT 10SM CLR 31/21 A3012 RMK AO2 T03100214
KI69 181437Z AUTO 27005KT 10SM CLR 31/22 A3012 RMK AO2 T03050217
KI69 181416Z AUTO 28007KT 10SM CLR 30/22 A3012 RMK AO2 T03020221
KI69 181415Z AUTO 28006KT 10SM CLR 30/22 A3012 RMK AO2 T03010221
KI69 181356Z AUTO 26008KT 10SM CLR 30/22 A3012 RMK AO2 T02970218
KI69 181355Z AUTO 25008KT 10SM CLR 30/22 A3012 RMK AO2 T02960218
KI69 181337Z AUTO 25006KT 10SM CLR 29/22 A3012 RMK AO2 T02920219
KI69 181316Z AUTO 23006KT 10SM CLR 29/22 A3012 RMK AO2 T02860219
KI69 181315Z AUTO 23006KT 10SM CLR 29/22 A3012 RMK AO2 T02850219
KI69 181256Z AUTO 24004KT 10SM CLR 28/22 A3012 RMK AO2 T02800220
KI69 181255Z AUTO 24005KT 10SM CLR 28/22 A3012 RMK AO2 T02790220
KI69 181237Z AUTO 23004KT 10SM CLR 28/22 A3012 RMK AO2 T02750219
KI69 181216Z AUTO 23005KT 10SM CLR 27/22 A3011 RMK AO2 T02680218
KI69 181215Z AUTO 23004KT 10SM CLR 27/22 A3011 RMK AO2 T02680218
KI69 181156Z AUTO 23004KT 10SM CLR 26/23 A3011 RMK AO2 T02560226 10256 20220
KI69 181155Z AUTO 23004KT 10SM CLR 25/23 A3011 RMK AO2 T02540229 10255 20220
KI69 181137Z AUTO 00000KT 10SM CLR 24/24 A3010 RMK AO2 T02420235
KI69 181135Z AUTO 00000KT 10SM CLR 24/24 A3010 RMK AO2 T02420236
KI69 181116Z AUTO 00000KT 10SM CLR 25/23 A3010 RMK AO2 T02460228
KI69 181115Z AUTO 00000KT 10SM CLR 25/23 A3010 RMK AO2 T02450228
KI69 181056Z AUTO 00000KT 10SM CLR 22/22 A3010 RMK AO2 T02240224
KI69 181055Z AUTO 00000KT 10SM CLR 22/22 A3010 RMK AO2 T02230223
KI69 181036Z AUTO 00000KT 10SM CLR 23/23 A3011 RMK AO2 T02300226
KI69 181035Z AUTO 00000KT 10SM CLR 23/23 A3010 RMK AO2 T02280225
KI69 181016Z AUTO 00000KT 10SM CLR 22/22 A3010 RMK AO2 T02220222
KI69 181015Z AUTO 00000KT 10SM CLR 22/22 A3010 RMK AO2 T02210221
KI69 180957Z AUTO 00000KT 10SM CLR 23/23 A3009 RMK AO2 T02320225
KI69 180936Z AUTO 00000KT 10SM CLR 22/22 A3009 RMK AO2 T02240224
KI69 180935Z AUTO 00000KT 10SM CLR 22/22 A3009 RMK AO2 T02240224
KI69 180916Z AUTO 00000KT 10SM CLR 22/22 A3009 RMK AO2 T02240223
KI69 180915Z AUTO 00000KT 10SM CLR 22/22 A3009 RMK AO2 T02240222
KI69 180857Z AUTO 00000KT 10SM CLR 24/22 A3009 RMK AO2 T02410223
KI69 180836Z AUTO 00000KT 10SM CLR 24/23 A3009 RMK AO2 T02390225
KI69 180835Z AUTO 00000KT 10SM CLR 24/22 A3009 RMK AO2 T02390224
KI69 180816Z AUTO 00000KT 10SM CLR 24/23 A3009 RMK AO2 T02370226
KI69 180815Z AUTO 00000KT 10SM CLR 24/23 A3009 RMK AO2 T02360226
KI69 180757Z AUTO 00000KT 7SM CLR 23/23 A3009 RMK AO2 T02250225
KI69 180736Z AUTO 00000KT 10SM CLR 23/23 A3009 RMK AO2 T02340226
KI69 180735Z AUTO 00000KT 10SM CLR 23/23 A3009 RMK AO2 T02330227
KI69 180716Z AUTO 00000KT 10SM CLR 23/22 A3010 RMK AO2 T02310224
KI69 180715Z AUTO 00000KT 10SM CLR 23/23 A3010 RMK AO2 T02310225
KI69 180657Z AUTO 00000KT 10SM CLR 23/22 A3010 RMK AO2 T02300218
KI69 180636Z AUTO 00000KT 10SM CLR 25/21 A3010 RMK AO2 T02500211
KI69 180635Z AUTO 00000KT 10SM CLR 25/21 A3010 RMK AO2 T02500211
KI69 180616Z AUTO 00000KT 10SM CLR 25/21 A3010 RMK AO2 T02500212
KI69 180615Z AUTO 00000KT 10SM CLR 25/21 A3010 RMK AO2 T02500212
KI69 180557Z AUTO 22003KT 10SM CLR 25/21 A3010 RMK AO2 T02500212
KI69 180536Z AUTO 00000KT 10SM CLR 25/21 A3011 RMK AO2 T02500212
KI69 180535Z AUTO 00000KT 10SM CLR 25/21 A3011 RMK AO2 T02500212
KI69 180516Z AUTO 00000KT 10SM CLR 26/21 A3011 RMK AO2 T02580211
KI69 180515Z AUTO 00000KT 10SM CLR 26/21 A3011 RMK AO2 T02590211
KI69 180457Z AUTO 00000KT 10SM CLR 26/21 A3010 RMK AO2 T02610211
KI69 180455Z AUTO 00000KT 10SM CLR 26/21 A3010 RMK AO2 T02610211
KI69 180436Z AUTO 00000KT 10SM CLR 27/21 A3010 RMK AO2 T02650211
KI69 180435Z AUTO 00000KT 10SM CLR 27/21 A3010 RMK AO2 T02650211
KI69 180416Z AUTO 23003KT 10SM CLR 26/21 A3010 RMK AO2 T02620212
KI69 180415Z AUTO 23003KT 10SM CLR 26/21 A3010 RMK AO2 T02620212
KI69 180356Z AUTO 22003KT 10SM CLR 26/22 A3009 RMK AO2 T02610215
KI69 180355Z AUTO 22003KT 10SM CLR 26/22 A3009 RMK AO2 T02610215
KI69 180336Z AUTO 00000KT 10SM CLR 26/22 A3009 RMK AO2 T02620215
KI69 180335Z AUTO 00000KT 10SM CLR 26/22 A3009 RMK AO2 T02620215
KI69 180316Z AUTO 00000KT 10SM CLR 27/22 A3009 RMK AO2 T02670215
KI69 180315Z AUTO 00000KT 10SM CLR 27/22 A3009 RMK AO2 T02680215
KI69 180257Z AUTO 22003KT 10SM CLR 27/21 A3009 RMK AO2 T02730214
KI69 180236Z AUTO 23003KT 10SM CLR 28/21 A3009 RMK AO2 T02770213
KI69 180235Z AUTO 23003KT 10SM CLR 28/21 A3009 RMK AO2 T02780213
KI69 180216Z AUTO 00000KT 10SM CLR 28/21 A3008 RMK AO2 T02820213
KI69 180215Z AUTO 00000KT 10SM CLR 28/21 A3008 RMK AO2 T02830212
KI69 180157Z AUTO 00000KT 10SM CLR 28/21 A3008 RMK AO2 T02830214
KI69 180136Z AUTO 00000KT 10SM CLR 30/21 A3007 RMK AO2 T02950210
KI69 180135Z AUTO 00000KT 10SM CLR 30/21 A3007 RMK AO2 T02950210
KI69 180116Z AUTO 20003KT 10SM CLR 30/21 A3006 RMK AO2 T02980210
KI69 180115Z AUTO 21003KT 10SM CLR 30/21 A3007 RMK AO2 T02980210
KI69 180057Z AUTO 20003KT 10SM CLR 30/21 A3006 RMK AO2 T03020210
KI69 180036Z AUTO 19003KT 10SM CLR 31/21 A3006 RMK AO2 T03060209
KI69 180035Z AUTO 19003KT 10SM CLR 31/21 A3006 RMK AO2 T03060209
KI69 180016Z AUTO 00000KT 10SM CLR 32/21 A3007 RMK AO2 T03150207
KI69 180015Z AUTO 00000KT 10SM CLR 32/21 A3007 RMK AO2 T03150207
KI69 172357Z AUTO 00000KT 10SM CLR 32/21 A3007 RMK AO2 T03190205
KI69 172336Z AUTO 21003KT 10SM CLR 32/20 A3007 RMK AO2 T03230195
KI69 172335Z AUTO 21004KT 10SM CLR 32/20 A3007 RMK AO2 T03230195
KI69 172317Z AUTO 20004KT 10SM CLR 33/20 A3006 RMK AO2 T03250199
KI69 172256Z AUTO 20004KT 10SM CLR 33/20 A3007 RMK AO2 T03270199
KI69 172255Z AUTO 19004KT 10SM CLR 33/20 A3007 RMK AO2 T03270198
KI69 172236Z AUTO 23005KT 10SM CLR 33/19 A3008 RMK AO2 T03340193
KI69 172235Z AUTO 23005KT 10SM CLR 33/19 A3008 RMK AO2 T03340192
KI69 172217Z AUTO 20005KT 10SM CLR 34/20 A3008 RMK AO2 T03350195
KI69 172156Z AUTO 21005KT 10SM CLR 34/19 A3008 RMK AO2 T03360194
KI69 172155Z AUTO 21006KT 10SM CLR 34/20 A3008 RMK AO2 T03360195
KI69 172136Z AUTO 23005KT 10SM CLR 34/19 A3008 RMK AO2 T03370188
KI69 172135Z AUTO 23005KT 10SM CLR 34/19 A3009 RMK AO2 T03370190
KI69 172117Z AUTO 20006KT 10SM CLR 33/19 A3009 RMK AO2 T03340190
KI69 172056Z AUTO 20006KT 10SM CLR 34/19 A3009 RMK AO2 T03360187